createdAt,value
2023-03-27T00:00:23.424Z,1.60
2023-03-27T00:02:55.618Z,1.37
2023-03-27T00:05:26.289Z,1.03
2023-03-27T00:07:57.717Z,1.10
2023-03-27T00:10:33.770Z,0.90
2023-03-27T00:13:05.139Z,1.10
2023-03-27T00:15:37.560Z,1.00
2023-03-27T00:18:10.729Z,1.20
2023-03-27T00:20:43.355Z,0.87
2023-03-27T00:23:15.501Z,1.20
2023-03-27T00:25:51.853Z,1.07
2023-03-27T00:28:22.038Z,1.23
2023-03-27T00:30:52.633Z,1.10
2023-03-27T00:33:23.447Z,1.73
2023-03-27T00:35:54.682Z,1.60
2023-03-27T00:38:26.565Z,1.87
2023-03-27T00:41:00.009Z,2.20
2023-03-27T00:43:34.327Z,1.73
2023-03-27T00:46:08.597Z,2.53
2023-03-27T00:48:40.791Z,2.80
2023-03-27T00:51:12.113Z,2.97
2023-03-27T00:53:43.106Z,2.70
2023-03-27T00:56:16.240Z,3.10
2023-03-27T00:58:48.317Z,2.83
2023-03-27T01:01:27.850Z,2.10
2023-03-27T01:04:02.365Z,2.07
2023-03-27T01:06:34.392Z,2.43
2023-03-27T01:09:05.328Z,2.10
2023-03-27T01:11:50.088Z,2.10
2023-03-27T01:14:28.346Z,1.80
2023-03-27T01:17:09.904Z,1.83
2023-03-27T01:19:54.120Z,2.13
2023-03-27T01:23:02.401Z,1.63
2023-03-27T01:25:47.495Z,1.20
2023-03-27T01:28:27.898Z,1.13
2023-03-27T01:31:02.185Z,1.00
2023-03-27T01:33:46.372Z,1.50
2023-03-27T01:36:44.048Z,1.23
2023-03-27T01:39:25.613Z,1.40
2023-03-27T01:41:58.645Z,1.17
2023-03-27T01:44:43.149Z,1.50
2023-03-27T01:47:28.261Z,1.73
2023-03-27T01:50:02.677Z,2.03
2023-03-27T01:52:37.590Z,1.77
2023-03-27T01:55:12.912Z,1.80
2023-03-27T01:57:50.388Z,2.10
2023-03-27T02:00:23.947Z,2.13
2023-03-27T02:02:58.957Z,1.90
2023-03-27T02:05:34.376Z,2.10
2023-03-27T02:08:08.936Z,2.17
2023-03-27T02:10:44.095Z,2.30
2023-03-27T02:13:19.574Z,2.40
2023-03-27T02:15:52.116Z,2.07
2023-03-27T02:18:26.791Z,2.30
2023-03-27T02:20:57.172Z,3.10
2023-03-27T02:23:27.893Z,3.07
2023-03-27T02:26:02.171Z,2.90
2023-03-27T02:28:42.534Z,3.77
2023-03-27T02:31:32.566Z,2.63
2023-03-27T02:34:32.315Z,3.37
2023-03-27T02:37:10.320Z,3.57
2023-03-27T02:39:45.560Z,3.53
2023-03-27T02:42:21.824Z,2.67
2023-03-27T02:44:57.032Z,2.10
2023-03-27T02:47:30.860Z,2.43
2023-03-27T02:50:04.828Z,2.10
2023-03-27T02:52:38.752Z,2.83
2023-03-27T02:55:13.811Z,2.23
2023-03-27T02:57:52.507Z,2.37
2023-03-27T03:00:26.517Z,3.00
2023-03-27T03:03:02.704Z,2.43
2023-03-27T03:05:33.117Z,2.47
2023-03-27T03:08:03.464Z,2.33
2023-03-27T03:10:34.737Z,2.10
2023-03-27T03:13:06.856Z,2.17
2023-03-27T03:15:37.890Z,1.40
2023-03-27T03:18:09.453Z,1.30
2023-03-27T03:20:40.249Z,1.10
2023-03-27T03:23:11.600Z,1.80
2023-03-27T03:25:45.110Z,1.97
2023-03-27T03:28:18.452Z,1.90
2023-03-27T03:30:52.537Z,1.00
2023-03-27T03:33:23.822Z,1.53
2023-03-27T03:35:55.048Z,1.30
2023-03-27T03:38:27.279Z,1.50
2023-03-27T03:40:59.276Z,1.20
2023-03-27T03:43:32.609Z,1.60
2023-03-27T03:46:03.822Z,1.10
2023-03-27T03:48:34.812Z,1.30
2023-03-27T03:51:06.820Z,0.90
2023-03-27T03:53:37.564Z,0.63
2023-03-27T03:56:10.118Z,0.80
2023-03-27T03:58:42.234Z,0.90
2023-03-27T04:01:13.985Z,0.70
2023-03-27T04:03:47.048Z,1.50
2023-03-27T04:06:17.757Z,1.00
2023-03-27T04:08:51.293Z,0.90
2023-03-27T04:11:24.941Z,2.70
2023-03-27T04:13:58.290Z,1.07
2023-03-27T04:16:29.465Z,1.20
2023-03-27T04:19:01.490Z,0.80
2023-03-27T04:21:35.611Z,1.03
2023-03-27T04:24:08.745Z,0.77
2023-03-27T04:26:39.108Z,0.73
2023-03-27T04:29:10.796Z,1.00
2023-03-27T04:31:47.641Z,0.90
2023-03-27T04:34:20.374Z,1.00
2023-03-27T04:36:52.565Z,0.90
2023-03-27T04:39:25.820Z,0.90
2023-03-27T04:41:58.583Z,1.10
2023-03-27T04:44:31.205Z,1.10
2023-03-27T04:47:02.700Z,1.50
2023-03-27T04:49:39.192Z,1.73
2023-03-27T04:52:14.753Z,1.77
2023-03-27T04:54:46.878Z,1.17
2023-03-27T04:57:19.412Z,1.57
2023-03-27T04:59:52.109Z,1.70
2023-03-27T05:02:23.783Z,1.60
2023-03-27T05:04:58.865Z,1.27
2023-03-27T05:07:29.592Z,1.10
2023-03-27T05:10:00.181Z,1.93
2023-03-27T05:12:30.262Z,1.87
2023-03-27T05:15:06.467Z,1.27
2023-03-27T05:17:41.121Z,1.60
2023-03-27T05:20:15.089Z,1.63
2023-03-27T05:22:48.609Z,2.90
2023-03-27T05:25:20.399Z,2.20
2023-03-27T05:27:51.661Z,1.60
2023-03-27T05:30:25.274Z,1.97
2023-03-27T05:32:59.639Z,2.27
2023-03-27T05:35:30.521Z,1.60
2023-03-27T05:38:00.467Z,2.03
2023-03-27T05:40:32.086Z,2.00
2023-03-27T05:43:03.237Z,1.67
2023-03-27T05:45:36.781Z,2.10
2023-03-27T05:48:07.958Z,2.20
2023-03-27T05:50:38.282Z,2.67
2023-03-27T05:53:10.586Z,4.20
2023-03-27T05:55:42.073Z,3.83
2023-03-27T05:58:14.299Z,3.40
2023-03-27T06:00:46.944Z,2.03
2023-03-27T06:03:20.296Z,1.80
2023-03-27T06:05:50.664Z,1.23
2023-03-27T06:08:21.394Z,1.53
2023-03-27T06:10:51.988Z,1.57
2023-03-27T06:13:24.459Z,1.67
2023-03-27T06:15:58.614Z,1.90
2023-03-27T06:18:29.327Z,1.90
2023-03-27T06:20:59.901Z,1.70
2023-03-27T06:23:30.216Z,2.03
2023-03-27T06:26:00.464Z,2.20
2023-03-27T06:28:31.088Z,1.60
2023-03-27T06:31:04.656Z,1.50
2023-03-27T06:33:35.397Z,1.20
2023-03-27T06:36:06.232Z,1.77
2023-03-27T06:38:38.049Z,1.80
2023-03-27T06:41:08.662Z,1.87
2023-03-27T06:43:39.015Z,2.10
2023-03-27T06:46:11.203Z,2.23
2023-03-27T06:48:41.412Z,2.50
2023-03-27T06:51:12.228Z,1.60
2023-03-27T06:53:42.552Z,1.90
2023-03-27T06:56:13.421Z,2.30
2023-03-27T06:58:44.020Z,2.20
2023-03-27T07:01:17.009Z,2.07
2023-03-27T07:03:47.271Z,1.70
2023-03-27T07:06:19.598Z,2.10
2023-03-27T07:08:50.245Z,2.17
2023-03-27T07:11:21.242Z,1.23
2023-03-27T07:13:51.239Z,1.80
2023-03-27T07:16:23.478Z,2.90
2023-03-27T07:18:54.095Z,2.57
2023-03-27T07:21:23.849Z,2.53
2023-03-27T07:23:55.064Z,3.00
2023-03-27T07:26:25.774Z,3.57
2023-03-27T07:28:56.263Z,4.20
2023-03-27T07:31:49.002Z,4.43
2023-03-27T07:34:21.248Z,4.30
2023-03-27T07:36:51.512Z,3.80
2023-03-27T07:39:21.512Z,3.80
2023-03-27T07:41:52.155Z,3.30
2023-03-27T07:44:22.806Z,2.77
2023-03-27T07:46:54.719Z,2.33
2023-03-27T07:49:39.228Z,2.33
2023-03-27T07:52:11.532Z,2.33
2023-03-27T07:54:43.451Z,1.97
2023-03-27T07:57:14.145Z,2.90
2023-03-27T07:59:45.697Z,2.50
2023-03-27T08:02:18.048Z,2.77
2023-03-27T08:04:48.117Z,2.60
2023-03-27T08:07:21.852Z,3.13
2023-03-27T08:09:57.641Z,1.70
2023-03-27T08:12:28.111Z,2.00
2023-03-27T08:14:57.982Z,2.10
2023-03-27T08:17:29.960Z,1.70
2023-03-27T08:20:01.007Z,2.03
2023-03-27T08:22:32.016Z,2.10
2023-03-27T08:25:02.083Z,2.10
2023-03-27T08:27:33.682Z,2.60
2023-03-27T08:30:04.944Z,2.50
2023-03-27T08:32:37.773Z,2.00
2023-03-27T08:35:08.758Z,2.20
2023-03-27T08:37:39.080Z,2.63
2023-03-27T08:40:14.054Z,2.33
2023-03-27T08:42:46.231Z,2.20
2023-03-27T08:45:23.223Z,2.80
2023-03-27T08:47:58.681Z,2.17
2023-03-27T08:50:34.615Z,2.20
2023-03-27T08:53:07.603Z,3.30
2023-03-27T08:55:43.050Z,3.00
2023-03-27T08:58:21.026Z,3.07
2023-03-27T09:00:59.284Z,2.37
2023-03-27T09:03:36.798Z,2.77
2023-03-27T09:06:11.958Z,2.33
2023-03-27T09:08:50.126Z,2.27
2023-03-27T09:11:30.078Z,1.80
2023-03-27T09:14:00.678Z,1.20
2023-03-27T09:16:33.155Z,1.30
2023-03-27T09:19:10.502Z,1.07
2023-03-27T09:21:45.969Z,0.40
2023-03-27T09:24:22.102Z,0.90
2023-03-27T09:27:06.355Z,0.43
2023-03-27T09:29:39.390Z,0.40
2023-03-27T09:32:15.805Z,0.43
2023-03-27T09:34:50.409Z,0.53
2023-03-27T09:37:21.928Z,0.40
2023-03-27T09:39:54.838Z,0.30
2023-03-27T09:42:28.549Z,0.40
2023-03-27T09:45:00.352Z,0.30
2023-03-27T09:47:35.303Z,0.30
2023-03-27T09:50:26.285Z,0.47
2023-03-27T09:53:10.408Z,0.47
2023-03-27T09:55:53.804Z,0.53
2023-03-27T09:58:44.609Z,0.30
2023-03-27T10:01:18.010Z,0.40
2023-03-27T10:03:51.753Z,0.40
2023-03-27T10:06:31.350Z,0.30
2023-03-27T10:09:02.368Z,0.40
2023-03-27T10:11:36.111Z,0.60
2023-03-27T10:14:18.245Z,0.30
2023-03-27T10:16:49.603Z,0.50
2023-03-27T10:19:25.532Z,0.47
2023-03-27T10:21:57.998Z,0.30
2023-03-27T10:24:36.021Z,0.30
2023-03-27T10:27:22.045Z,0.40
2023-03-27T10:29:52.698Z,0.30
2023-03-27T10:32:46.201Z,0.30
2023-03-27T10:35:27.442Z,0.40
2023-03-27T10:38:00.048Z,0.30
2023-03-27T10:40:33.625Z,0.40
2023-03-27T10:43:07.135Z,1.27
2023-03-27T10:45:46.249Z,0.70
2023-03-27T10:48:31.215Z,0.30
2023-03-27T10:51:06.912Z,0.37
2023-03-27T10:53:44.012Z,0.30
2023-03-27T10:56:20.046Z,0.40
2023-03-27T10:58:51.959Z,0.27
2023-03-27T11:01:28.619Z,0.33
2023-03-27T11:04:05.042Z,0.40
2023-03-27T11:06:45.393Z,0.40
2023-03-27T11:09:20.212Z,0.40
2023-03-27T11:11:55.983Z,0.40
2023-03-27T11:14:32.640Z,0.30
2023-03-27T11:17:06.121Z,0.57
2023-03-27T11:19:43.541Z,0.50
2023-03-27T11:22:16.537Z,0.40
2023-03-27T11:24:52.840Z,0.40
2023-03-27T11:27:28.646Z,0.30
2023-03-27T11:30:08.917Z,0.40
2023-03-27T11:32:45.007Z,0.60
2023-03-27T11:35:17.781Z,0.30
2023-03-27T11:37:49.857Z,0.40
2023-03-27T11:40:27.615Z,0.30
2023-03-27T11:42:57.625Z,0.37
2023-03-27T11:45:31.473Z,0.73
2023-03-27T11:48:15.739Z,0.30
2023-03-27T11:50:52.438Z,0.70
2023-03-27T11:53:33.997Z,0.33
2023-03-27T11:56:17.700Z,0.37
2023-03-27T11:59:08.073Z,0.60
2023-03-27T12:01:43.178Z,0.40
2023-03-27T12:04:39.175Z,0.40
2023-03-27T12:07:26.360Z,0.30
2023-03-27T12:10:16.154Z,0.40
2023-03-27T12:13:08.595Z,0.30
2023-03-27T12:15:52.537Z,0.30
2023-03-27T12:18:36.451Z,0.30
2023-03-27T12:21:19.948Z,0.40
2023-03-27T12:24:17.524Z,0.40
2023-03-27T12:27:13.884Z,0.40
2023-03-27T12:30:06.847Z,0.40
2023-03-27T12:33:05.206Z,0.30
2023-03-27T12:35:41.857Z,0.40
2023-03-27T12:38:21.436Z,0.37
2023-03-27T12:41:03.262Z,0.30
2023-03-27T12:43:39.748Z,0.30
2023-03-27T12:46:18.276Z,0.33
2023-03-27T12:48:58.942Z,0.30
2023-03-27T12:51:42.375Z,0.37
2023-03-27T12:54:24.464Z,0.40
2023-03-27T12:57:05.928Z,0.30
2023-03-27T12:59:39.228Z,0.47
2023-03-27T13:02:50.934Z,0.30
2023-03-27T13:05:49.856Z,0.50
2023-03-27T13:08:59.814Z,0.30
2023-03-27T13:11:58.659Z,0.40
2023-03-27T13:14:56.484Z,0.30
2023-03-27T13:17:48.001Z,0.30
2023-03-27T13:20:28.930Z,0.30
2023-03-27T13:23:10.902Z,0.40
2023-03-27T13:26:03.544Z,0.40
2023-03-27T13:28:39.974Z,0.30
2023-03-27T13:31:15.315Z,0.50
2023-03-27T13:33:49.536Z,0.40
2023-03-27T13:36:25.209Z,0.30
2023-03-27T13:39:25.096Z,0.50
2023-03-27T13:42:02.491Z,0.43
2023-03-27T13:44:48.684Z,0.30
2023-03-27T13:47:58.841Z,0.30
2023-03-27T13:50:49.391Z,0.60
2023-03-27T13:53:34.225Z,0.40
2023-03-27T13:56:35.145Z,0.30
2023-03-27T13:59:30.127Z,0.40
2023-03-27T14:02:14.028Z,0.40
2023-03-27T14:05:05.012Z,0.50
2023-03-27T14:08:08.666Z,0.40
2023-03-27T14:11:15.415Z,0.30
2023-03-27T14:14:00.363Z,0.50
2023-03-27T14:17:03.629Z,0.40
2023-03-27T14:20:07.239Z,0.57
2023-03-27T14:22:44.543Z,0.40
2023-03-27T14:25:17.197Z,0.50
2023-03-27T14:27:56.601Z,0.60
2023-03-27T14:30:29.908Z,0.40
2023-03-27T14:33:09.692Z,0.60
2023-03-27T14:35:43.522Z,0.73
2023-03-27T14:38:23.337Z,0.50
2023-03-27T14:40:57.794Z,0.60
2023-03-27T14:43:32.237Z,0.90
2023-03-27T14:46:06.646Z,0.50
2023-03-27T14:48:39.473Z,1.03
2023-03-27T14:51:13.970Z,1.03
2023-03-27T14:53:46.350Z,0.80
2023-03-27T14:56:27.139Z,0.80
2023-03-27T14:59:01.395Z,0.60
2023-03-27T15:01:35.600Z,1.20
2023-03-27T15:04:11.521Z,0.80
2023-03-27T15:06:41.988Z,1.10
2023-03-27T15:09:17.177Z,0.70
2023-03-27T15:11:51.486Z,1.03
2023-03-27T15:14:31.035Z,0.90
2023-03-27T15:17:07.253Z,0.53
2023-03-27T15:19:43.955Z,1.00
2023-03-27T15:22:17.845Z,0.70
2023-03-27T15:24:51.234Z,0.73
2023-03-27T15:27:24.283Z,0.83
2023-03-27T15:29:59.931Z,0.80
2023-03-27T15:32:43.278Z,0.50
2023-03-27T15:35:18.281Z,0.80
2023-03-27T15:37:49.334Z,1.13
2023-03-27T15:40:38.496Z,0.83
2023-03-27T15:43:25.308Z,0.80
2023-03-27T15:46:04.757Z,0.80
2023-03-27T15:48:37.935Z,1.00
2023-03-27T15:51:09.893Z,0.70
2023-03-27T15:53:42.319Z,0.70
2023-03-27T15:56:22.891Z,0.70
2023-03-27T15:58:56.157Z,1.17
2023-03-27T16:01:38.162Z,0.67
2023-03-27T16:04:12.233Z,1.03
2023-03-27T16:06:45.887Z,0.90
2023-03-27T16:09:26.065Z,0.97
2023-03-27T16:11:58.680Z,0.80
2023-03-27T16:14:34.299Z,0.80
2023-03-27T16:17:25.393Z,0.70
2023-03-27T16:19:59.383Z,1.17
2023-03-27T16:22:32.851Z,0.80
2023-03-27T16:25:04.711Z,1.00
2023-03-27T16:27:38.297Z,0.97
2023-03-27T16:30:09.793Z,1.23
2023-03-27T16:32:42.310Z,0.80
2023-03-27T16:35:12.957Z,0.60
2023-03-27T16:37:43.911Z,1.23
2023-03-27T16:40:14.932Z,1.03
2023-03-27T16:42:45.808Z,1.20
2023-03-27T16:45:16.422Z,1.30
2023-03-27T16:47:53.028Z,0.97
2023-03-27T16:50:26.828Z,1.20
2023-03-27T16:53:01.476Z,1.00
2023-03-27T16:55:33.167Z,1.07
2023-03-27T16:58:05.698Z,1.27
2023-03-27T17:00:36.186Z,0.90
2023-03-27T17:03:14.471Z,1.00
2023-03-27T17:05:44.800Z,0.90
2023-03-27T17:08:18.951Z,1.13
2023-03-27T17:10:49.163Z,1.20
2023-03-27T17:13:19.412Z,1.50
2023-03-27T17:15:52.313Z,1.20
2023-03-27T17:18:26.157Z,1.50
2023-03-27T17:20:57.531Z,1.43
2023-03-27T17:23:28.023Z,0.73
2023-03-27T17:25:58.766Z,1.67
2023-03-27T17:28:30.326Z,0.80
2023-03-27T17:31:05.124Z,0.73
2023-03-27T17:33:38.141Z,0.60
2023-03-27T17:36:13.287Z,0.87
2023-03-27T17:38:48.005Z,1.00
2023-03-27T17:41:19.095Z,1.00
2023-03-27T17:43:50.508Z,0.80
2023-03-27T17:46:22.721Z,1.00
2023-03-27T17:48:55.703Z,1.00
2023-03-27T17:51:25.964Z,0.60
2023-03-27T17:53:57.477Z,0.70
2023-03-27T17:56:28.864Z,0.90
2023-03-27T17:59:00.195Z,0.70
2023-03-27T18:01:32.049Z,0.80
2023-03-27T18:04:04.018Z,0.77
2023-03-27T18:06:39.177Z,0.93
2023-03-27T18:09:10.980Z,0.90
2023-03-27T18:11:41.924Z,0.70
2023-03-27T18:14:32.534Z,0.80
2023-03-27T18:17:03.069Z,1.07
2023-03-27T18:19:37.190Z,1.33
2023-03-27T18:22:09.324Z,0.80
2023-03-27T18:24:40.930Z,0.83
2023-03-27T18:27:11.999Z,0.60
2023-03-27T18:29:42.939Z,0.90
2023-03-27T18:32:14.278Z,0.90
2023-03-27T18:35:07.061Z,0.97
2023-03-27T18:37:39.681Z,0.50
2023-03-27T18:40:14.609Z,0.90
2023-03-27T18:42:46.857Z,0.83
2023-03-27T18:45:20.226Z,1.20
2023-03-27T18:47:51.901Z,0.87
2023-03-27T18:50:25.121Z,0.60
2023-03-27T18:52:59.247Z,1.00
2023-03-27T18:55:29.645Z,0.63
2023-03-27T18:58:00.064Z,0.97
2023-03-27T19:00:32.854Z,0.70
2023-03-27T19:03:03.650Z,0.80
2023-03-27T19:05:36.392Z,1.07
2023-03-27T19:08:09.837Z,0.60
2023-03-27T19:10:40.967Z,0.77
2023-03-27T19:13:12.196Z,0.90
2023-03-27T19:15:44.232Z,1.03
2023-03-27T19:18:17.890Z,0.90
2023-03-27T19:20:50.801Z,0.60
2023-03-27T19:23:23.879Z,0.50
2023-03-27T19:25:55.102Z,0.83
2023-03-27T19:28:26.327Z,0.70
2023-03-27T19:30:57.417Z,0.73
2023-03-27T19:33:30.136Z,0.70
2023-03-27T19:36:05.508Z,1.07
2023-03-27T19:38:37.699Z,0.70
2023-03-27T19:41:12.945Z,0.90
2023-03-27T19:43:43.752Z,0.97
2023-03-27T19:46:17.177Z,0.90
2023-03-27T19:48:50.329Z,0.60
2023-03-27T19:51:23.191Z,0.70
2023-03-27T19:53:53.658Z,1.73
2023-03-27T19:56:23.866Z,0.93
2023-03-27T19:58:55.141Z,0.80
2023-03-27T20:01:28.788Z,1.13
2023-03-27T20:03:59.757Z,0.77
2023-03-27T20:06:34.251Z,1.23
2023-03-27T20:09:06.174Z,1.10
2023-03-27T20:11:38.654Z,0.90
2023-03-27T20:14:11.247Z,1.20
2023-03-27T20:16:41.883Z,1.40
2023-03-27T20:19:14.694Z,2.63
2023-03-27T20:21:48.569Z,1.80
2023-03-27T20:24:20.790Z,1.83
2023-03-27T20:26:55.121Z,1.20
2023-03-27T20:29:30.700Z,1.40
2023-03-27T20:32:02.148Z,2.17
2023-03-27T20:34:33.432Z,1.97
2023-03-27T20:37:12.207Z,1.23
2023-03-27T20:39:50.011Z,1.07
2023-03-27T20:42:24.968Z,0.90
2023-03-27T20:44:58.691Z,1.37
2023-03-27T20:47:39.592Z,1.47
2023-03-27T20:50:14.593Z,1.10
2023-03-27T20:52:47.125Z,0.67
2023-03-27T20:55:30.439Z,0.93
2023-03-27T20:58:08.660Z,1.13
2023-03-27T21:00:40.007Z,1.00
2023-03-27T21:03:12.943Z,1.10
2023-03-27T21:05:45.287Z,1.10
2023-03-27T21:08:18.848Z,1.60
2023-03-27T21:10:56.794Z,1.13
2023-03-27T21:13:28.409Z,1.00
2023-03-27T21:15:59.686Z,0.97
2023-03-27T21:18:31.050Z,1.20
2023-03-27T21:21:01.454Z,1.50
2023-03-27T21:23:35.083Z,1.00
2023-03-27T21:26:06.004Z,0.93
2023-03-27T21:28:37.336Z,1.10
2023-03-27T21:31:09.355Z,0.97
2023-03-27T21:33:40.010Z,1.33
2023-03-27T21:36:13.467Z,1.10
2023-03-27T21:38:48.522Z,1.20
2023-03-27T21:41:20.885Z,1.03
2023-03-27T21:43:51.794Z,0.90
2023-03-27T21:46:22.403Z,1.43
2023-03-27T21:48:53.729Z,0.80
2023-03-27T21:51:24.578Z,1.00
2023-03-27T21:53:57.560Z,0.90
2023-03-27T21:56:27.747Z,1.00
2023-03-27T21:58:58.424Z,1.03
2023-03-27T22:01:29.568Z,0.90
2023-03-27T22:04:02.607Z,0.80
2023-03-27T22:06:34.789Z,1.00
2023-03-27T22:09:11.218Z,1.07
2023-03-27T22:11:41.662Z,0.80
2023-03-27T22:14:12.530Z,0.70
2023-03-27T22:16:43.894Z,0.80
2023-03-27T22:19:14.409Z,0.63
2023-03-27T22:21:44.217Z,1.20
2023-03-27T22:24:16.163Z,0.50
2023-03-27T22:26:46.276Z,1.10
2023-03-27T22:29:16.852Z,0.70
2023-03-27T22:31:47.057Z,1.60
2023-03-27T22:34:17.897Z,1.50
2023-03-27T22:36:48.892Z,0.80
2023-03-27T22:39:20.910Z,0.90
2023-03-27T22:41:51.276Z,1.10
2023-03-27T22:44:21.789Z,0.93
2023-03-27T22:46:53.317Z,7.43
2023-03-27T22:49:23.427Z,3.37
2023-03-27T22:51:54.626Z,2.33
2023-03-27T22:54:27.387Z,1.10
2023-03-27T22:57:00.434Z,1.30
2023-03-27T22:59:31.364Z,0.80
2023-03-27T23:02:01.923Z,1.00
2023-03-27T23:04:32.933Z,0.80
2023-03-27T23:07:03.953Z,0.73
2023-03-27T23:09:37.011Z,1.30
2023-03-27T23:12:08.854Z,0.60
2023-03-27T23:14:40.316Z,0.80
2023-03-27T23:17:10.737Z,0.83
2023-03-27T23:19:41.253Z,1.00
2023-03-27T23:22:11.543Z,0.80
2023-03-27T23:24:44.900Z,0.40
2023-03-27T23:27:15.996Z,0.93
2023-03-27T23:29:48.850Z,0.70
2023-03-27T23:32:18.753Z,0.90
2023-03-27T23:34:48.758Z,0.90
2023-03-27T23:37:19.362Z,0.70
2023-03-27T23:39:51.735Z,0.70
2023-03-27T23:42:22.017Z,1.13
2023-03-27T23:44:52.702Z,0.80
2023-03-27T23:47:22.687Z,0.90
2023-03-27T23:49:53.523Z,1.00
2023-03-27T23:52:25.070Z,0.80
2023-03-27T23:54:57.094Z,1.33
2023-03-27T23:57:27.444Z,0.87
2023-03-27T23:59:57.559Z,0.83
